sensor_id;sensor_type;location;lat;lon;timestamp;pressure;altitude;pressure_sealevel;temperature;humidity
63901;BME280;50538;53.482;10.294;2023-05-12T00:06:01;101290.78;;;13.27;78.09
63901;BME280;50538;53.482;10.294;2023-05-12T00:16:05;101292.25;;;13.38;77.11
63901;BME280;50538;53.482;10.294;2023-05-12T00:26:13;101305.38;;;13.48;75.92
63901;BME280;50538;53.482;10.294;2023-05-12T00:36:39;101304.19;;;13.58;75.57
63901;BME280;50538;53.482;10.294;2023-05-12T00:58:25;101300.31;;;13.69;73.76
63901;BME280;50538;53.482;10.294;2023-05-12T01:09:12;101308.47;;;13.76;73.18
63901;BME280;50538;53.482;10.294;2023-05-12T01:30:22;101314.63;;;13.84;72.82
63901;BME280;50538;53.482;10.294;2023-05-12T01:40:47;101327.31;;;13.90;72.59
63901;BME280;50538;53.482;10.294;2023-05-12T01:50:49;101324.28;;;13.94;72.49
63901;BME280;50538;53.482;10.294;2023-05-12T02:00:49;101336.28;;;13.98;72.30
63901;BME280;50538;53.482;10.294;2023-05-12T02:11:19;101340.41;;;14.00;72.11
63901;BME280;50538;53.482;10.294;2023-05-12T02:21:28;101350.75;;;14.03;72.11
63901;BME280;50538;53.482;10.294;2023-05-12T02:31:56;101345.06;;;14.06;71.81
63901;BME280;50538;53.482;10.294;2023-05-12T02:52:49;101344.72;;;14.09;72.13
63901;BME280;50538;53.482;10.294;2023-05-12T03:03:15;101352.56;;;14.11;71.51
63901;BME280;50538;53.482;10.294;2023-05-12T03:13:39;101359.91;;;14.09;72.09
63901;BME280;50538;53.482;10.294;2023-05-12T03:24:02;101368.09;;;14.07;72.25
63901;BME280;50538;53.482;10.294;2023-05-12T03:34:33;101363.94;;;14.05;72.32
63901;BME280;50538;53.482;10.294;2023-05-12T03:44:58;101374.63;;;14.05;72.52
63901;BME280;50538;53.482;10.294;2023-05-12T03:55:00;101375.63;;;14.04;72.64
63901;BME280;50538;53.482;10.294;2023-05-12T04:05:37;101390.47;;;14.06;72.54
63901;BME280;50538;53.482;10.294;2023-05-12T04:16:15;101390.94;;;14.10;72.37
63901;BME280;50538;53.482;10.294;2023-05-12T04:26:16;101400.28;;;14.14;72.19
63901;BME280;50538;53.482;10.294;2023-05-12T04:36:17;101406.59;;;14.21;72.33
63901;BME280;50538;53.482;10.294;2023-05-12T04:46:17;101422.78;;;14.28;71.92
63901;BME280;50538;53.482;10.294;2023-05-12T04:56:18;101437.09;;;14.35;71.95
63901;BME280;50538;53.482;10.294;2023-05-12T05:06:18;101435.25;;;14.43;71.73
63901;BME280;50538;53.482;10.294;2023-05-12T05:16:19;101437.34;;;14.56;71.84
63901;BME280;50538;53.482;10.294;2023-05-12T05:26:19;101457.81;;;14.72;71.12
63901;BME280;50538;53.482;10.294;2023-05-12T05:36:21;101455.03;;;14.88;70.51
63901;BME280;50538;53.482;10.294;2023-05-12T05:46:22;101466.78;;;15.10;69.08
63901;BME280;50538;53.482;10.294;2023-05-12T05:56:23;101472.97;;;15.33;69.70
63901;BME280;50538;53.482;10.294;2023-05-12T06:06:23;101478.88;;;15.51;68.54
63901;BME280;50538;53.482;10.294;2023-05-12T06:16:24;101492.19;;;15.74;67.88
63901;BME280;50538;53.482;10.294;2023-05-12T06:26:26;101498.56;;;16.11;67.17
63901;BME280;50538;53.482;10.294;2023-05-12T06:36:30;101510.22;;;16.62;65.40
63901;BME280;50538;53.482;10.294;2023-05-12T06:46:30;101510.03;;;17.14;63.88
63901;BME280;50538;53.482;10.294;2023-05-12T06:56:31;101517.22;;;17.50;61.90
63901;BME280;50538;53.482;10.294;2023-05-12T07:06:31;101530.66;;;17.71;60.97
63901;BME280;50538;53.482;10.294;2023-05-12T07:16:33;101526.84;;;18.15;60.04
63901;BME280;50538;53.482;10.294;2023-05-12T07:26:42;101534.91;;;18.84;56.85
63901;BME280;50538;53.482;10.294;2023-05-12T07:36:48;101530.75;;;19.36;55.13
63901;BME280;50538;53.482;10.294;2023-05-12T07:46:59;101524.38;;;19.90;54.96
63901;BME280;50538;53.482;10.294;2023-05-12T07:57:09;101528.88;;;20.48;52.00
63901;BME280;50538;53.482;10.294;2023-05-12T08:07:26;101534.16;;;21.33;49.81
63901;BME280;50538;53.482;10.294;2023-05-12T08:17:47;101523.78;;;21.86;48.32
63901;BME280;50538;53.482;10.294;2023-05-12T08:27:50;101530.97;;;22.60;48.68
63901;BME280;50538;53.482;10.294;2023-05-12T08:38:01;101529.41;;;23.19;46.36
63901;BME280;50538;53.482;10.294;2023-05-12T08:48:10;101527.31;;;23.63;47.32
63901;BME280;50538;53.482;10.294;2023-05-12T08:59:07;101533.38;;;24.12;42.22
63901;BME280;50538;53.482;10.294;2023-05-12T09:09:17;101522.63;;;24.52;40.95
63901;BME280;50538;53.482;10.294;2023-05-12T09:19:31;101521.13;;;24.84;41.64
63901;BME280;50538;53.482;10.294;2023-05-12T09:29:54;101522.28;;;25.28;47.95
63901;BME280;50538;53.482;10.294;2023-05-12T09:40:24;101526.09;;;25.61;36.07
63901;BME280;50538;53.482;10.294;2023-05-12T09:51:14;101520.38;;;25.91;39.64
63901;BME280;50538;53.482;10.294;2023-05-12T10:01:30;101522.53;;;25.27;37.68
63901;BME280;50538;53.482;10.294;2023-05-12T10:11:41;101525.09;;;25.05;38.57
63901;BME280;50538;53.482;10.294;2023-05-12T10:22:00;101527.56;;;24.66;37.79
63901;BME280;50538;53.482;10.294;2023-05-12T10:32:34;101523.75;;;24.79;35.45
63901;BME280;50538;53.482;10.294;2023-05-12T10:43:04;101512.25;;;24.89;36.77
63901;BME280;50538;53.482;10.294;2023-05-12T10:53:26;101509.66;;;25.67;38.02
63901;BME280;50538;53.482;10.294;2023-05-12T11:04:15;101510.25;;;25.58;41.11
63901;BME280;50538;53.482;10.294;2023-05-12T11:14:16;101503.03;;;26.52;39.68
63901;BME280;50538;53.482;10.294;2023-05-12T11:24:47;101504.69;;;27.29;32.31
63901;BME280;50538;53.482;10.294;2023-05-12T11:35:38;101502.88;;;28.04;40.84
63901;BME280;50538;53.482;10.294;2023-05-12T11:46:07;101508.03;;;28.37;34.31
63901;BME280;50538;53.482;10.294;2023-05-12T11:56:28;101514.34;;;28.48;33.05
63901;BME280;50538;53.482;10.294;2023-05-12T12:06:43;101520.31;;;27.65;34.04
63901;BME280;50538;53.482;10.294;2023-05-12T12:17:18;101527.31;;;27.24;34.24
63901;BME280;50538;53.482;10.294;2023-05-12T12:27:57;101505.22;;;27.85;31.03
63901;BME280;50538;53.482;10.294;2023-05-12T12:37:57;101501.19;;;27.97;30.58
63901;BME280;50538;53.482;10.294;2023-05-12T12:48:09;101501.66;;;28.26;36.82
63901;BME280;50538;53.482;10.294;2023-05-12T12:58:32;101482.91;;;28.50;31.66
63901;BME280;50538;53.482;10.294;2023-05-12T13:08:52;101481.63;;;28.68;40.23
63901;BME280;50538;53.482;10.294;2023-05-12T14:32:40;101485.41;;;28.05;38.46
63901;BME280;50538;53.482;10.294;2023-05-12T16:41:33;101482.44;;;31.45;29.98
63901;BME280;50538;53.482;10.294;2023-05-12T16:51:55;101490.34;;;31.80;31.62
63901;BME280;50538;53.482;10.294;2023-05-12T17:02:28;101483.31;;;32.88;30.56
63901;BME280;50538;53.482;10.294;2023-05-12T17:12:45;101486.22;;;33.16;31.49
63901;BME280;50538;53.482;10.294;2023-05-12T17:23:11;101492.59;;;33.30;29.61
63901;BME280;50538;53.482;10.294;2023-05-12T17:44:39;101510.75;;;33.12;27.88
63901;BME280;50538;53.482;10.294;2023-05-12T17:54:46;101521.94;;;33.21;29.47
63901;BME280;50538;53.482;10.294;2023-05-12T18:04:57;101529.63;;;31.03;32.59
63901;BME280;50538;53.482;10.294;2023-05-12T18:14:59;101539.16;;;27.99;36.34
63901;BME280;50538;53.482;10.294;2023-05-12T18:25:02;101548.00;;;25.99;37.15
63901;BME280;50538;53.482;10.294;2023-05-12T18:35:21;101558.16;;;24.62;40.89
63901;BME280;50538;53.482;10.294;2023-05-12T18:45:22;101574.25;;;23.63;43.57
63901;BME280;50538;53.482;10.294;2023-05-12T18:55:23;101580.81;;;22.71;43.98
63901;BME280;50538;53.482;10.294;2023-05-12T19:05:23;101599.03;;;21.96;45.54
63901;BME280;50538;53.482;10.294;2023-05-12T19:15:28;101605.66;;;21.30;47.66
63901;BME280;50538;53.482;10.294;2023-05-12T19:25:29;101609.38;;;20.65;48.80
63901;BME280;50538;53.482;10.294;2023-05-12T19:35:30;101624.56;;;20.13;51.16
63901;BME280;50538;53.482;10.294;2023-05-12T19:45:37;101635.66;;;19.57;51.58
63901;BME280;50538;53.482;10.294;2023-05-12T19:55:38;101643.34;;;19.12;53.91
63901;BME280;50538;53.482;10.294;2023-05-12T20:05:38;101651.81;;;18.75;54.73
63901;BME280;50538;53.482;10.294;2023-05-12T20:15:40;101649.28;;;18.39;56.60
63901;BME280;50538;53.482;10.294;2023-05-12T20:25:41;101655.78;;;18.02;56.66
63901;BME280;50538;53.482;10.294;2023-05-12T20:35:45;101663.38;;;17.77;57.76
63901;BME280;50538;53.482;10.294;2023-05-12T20:45:46;101674.75;;;17.43;58.11
63901;BME280;50538;53.482;10.294;2023-05-12T20:55:47;101676.41;;;17.14;58.81
63901;BME280;50538;53.482;10.294;2023-05-12T21:05:47;101680.66;;;16.94;58.87
63901;BME280;50538;53.482;10.294;2023-05-12T21:15:48;101679.28;;;16.69;59.84
63901;BME280;50538;53.482;10.294;2023-05-12T21:25:54;101689.00;;;16.47;60.20
63901;BME280;50538;53.482;10.294;2023-05-12T21:36:04;101693.22;;;16.27;60.53
63901;BME280;50538;53.482;10.294;2023-05-12T21:46:04;101707.25;;;16.06;60.53
63901;BME280;50538;53.482;10.294;2023-05-12T21:56:05;101698.00;;;15.85;61.21
63901;BME280;50538;53.482;10.294;2023-05-12T22:06:12;101707.31;;;15.67;61.30
63901;BME280;50538;53.482;10.294;2023-05-12T22:16:18;101707.75;;;15.47;61.57
63901;BME280;50538;53.482;10.294;2023-05-12T22:26:18;101715.69;;;15.24;61.72
63901;BME280;50538;53.482;10.294;2023-05-12T22:36:18;101718.75;;;15.05;61.82
63901;BME280;50538;53.482;10.294;2023-05-12T22:46:19;101722.44;;;14.88;61.97
63901;BME280;50538;53.482;10.294;2023-05-12T22:56:19;101727.63;;;14.73;62.16
63901;BME280;50538;53.482;10.294;2023-05-12T23:06:20;101721.81;;;14.53;62.15
63901;BME280;50538;53.482;10.294;2023-05-12T23:16:21;101720.97;;;14.37;62.47
63901;BME280;50538;53.482;10.294;2023-05-12T23:26:22;101717.13;;;14.23;62.61
63901;BME280;50538;53.482;10.294;2023-05-12T23:36:23;101724.28;;;14.06;62.71
63901;BME280;50538;53.482;10.294;2023-05-12T23:46:23;101718.59;;;13.93;62.91
63901;BME280;50538;53.482;10.294;2023-05-12T23:56:24;101707.53;;;13.80;63.02
